createdAt,value
2018-05-12T00:00:15.864Z,49.2
2018-05-12T00:01:07.039Z,49.1
2018-05-12T00:01:56.551Z,49.1
2018-05-12T00:02:47.166Z,49.1
2018-05-12T00:03:36.694Z,49.1
2018-05-12T00:04:27.418Z,49.1
2018-05-12T00:05:17.443Z,49.1
2018-05-12T00:06:07.168Z,49.1
2018-05-12T00:06:57.503Z,49.1
2018-05-12T00:07:47.023Z,49.1
2018-05-12T00:08:37.616Z,49.1
2018-05-12T00:09:27.701Z,49.1
2018-05-12T00:10:17.448Z,49.1
2018-05-12T00:11:07.521Z,49.1
2018-05-12T00:11:57.605Z,49.1
2018-05-12T00:12:47.925Z,49.1
2018-05-12T00:13:37.705Z,49.1
2018-05-12T00:14:27.792Z,49.1
2018-05-12T00:15:18.033Z,49.1
2018-05-12T00:16:07.907Z,49.1
2018-05-12T00:16:58.228Z,49.1
2018-05-12T00:17:48.035Z,49.1
2018-05-12T00:18:38.393Z,49.1
2018-05-12T00:19:28.152Z,49
2018-05-12T00:20:18.215Z,49
2018-05-12T00:21:08.277Z,49.1
2018-05-12T00:21:58.614Z,49
2018-05-12T00:22:48.405Z,49
2018-05-12T00:23:38.208Z,49
2018-05-12T00:24:28.848Z,49
2018-05-12T00:25:18.818Z,49
2018-05-12T00:26:08.960Z,49
2018-05-12T00:26:58.989Z,49
2018-05-12T00:27:49.080Z,49
2018-05-12T00:28:39.122Z,49
2018-05-12T00:29:29.199Z,49
2018-05-12T00:30:19.093Z,48.9
2018-05-12T00:31:09.343Z,48.9
2018-05-12T00:31:59.102Z,48.9
2018-05-12T00:32:49.184Z,48.9
2018-05-12T00:33:38.770Z,48.9
2018-05-12T00:34:29.595Z,48.9
2018-05-12T00:35:19.089Z,48.9
2018-05-12T00:36:09.412Z,48.9
2018-05-12T00:36:59.474Z,48.9
2018-05-12T00:37:48.991Z,48.9
2018-05-12T00:38:39.614Z,48.9
2018-05-12T00:39:29.954Z,48.9
2018-05-12T00:40:20.001Z,48.9
2018-05-12T00:41:10.049Z,48.9
2018-05-12T00:41:59.933Z,48.9
2018-05-12T00:42:50.455Z,48.9
2018-05-12T00:43:39.974Z,48.9
2018-05-12T00:44:30.069Z,48.9
2018-05-12T00:45:20.133Z,48.9
2018-05-12T00:46:10.431Z,48.9
2018-05-12T00:47:00.221Z,48.9
2018-05-12T00:47:50.589Z,48.9
2018-05-12T00:48:40.651Z,48.9
2018-05-12T00:49:30.440Z,48.9
2018-05-12T00:50:20.232Z,48.8
2018-05-12T00:51:10.565Z,48.9
2018-05-12T00:52:00.619Z,48.8
2018-05-12T00:52:50.665Z,48.8
2018-05-12T00:53:40.738Z,48.8
2018-05-12T00:54:31.088Z,48.8
2018-05-12T00:55:21.153Z,48.8
2018-05-12T00:56:11.006Z,48.8
2018-05-12T00:57:00.988Z,48.8
2018-05-12T00:57:51.141Z,48.8
2018-05-12T00:58:41.411Z,48.8
2018-05-12T00:59:31.187Z,48.8
2018-05-12T01:00:21.528Z,48.8
2018-05-12T01:01:11.313Z,48.8
2018-05-12T01:02:01.638Z,48.8
2018-05-12T01:02:51.711Z,48.8
2018-05-12T01:03:41.782Z,48.8
2018-05-12T01:04:31.562Z,48.8
2018-05-12T01:05:21.660Z,48.8
2018-05-12T01:06:11.675Z,48.8
2018-05-12T01:07:02.024Z,48.8
2018-05-12T01:07:52.167Z,48.8
2018-05-12T01:08:41.881Z,48.8
2018-05-12T01:09:31.935Z,48.8
2018-05-12T01:10:21.423Z,48.8
2018-05-12T01:11:12.139Z,48.8
2018-05-12T01:12:02.440Z,48.8
2018-05-12T01:12:52.182Z,48.8
2018-05-12T01:13:43.564Z,48.7
2018-05-12T01:14:32.597Z,48.7
2018-05-12T01:15:22.101Z,48.7
2018-05-12T01:16:12.712Z,48.7
2018-05-12T01:17:02.497Z,48.7
2018-05-12T01:17:52.851Z,48.7
2018-05-12T01:18:42.907Z,48.7
2018-05-12T01:19:32.152Z,48.7
2018-05-12T01:20:22.748Z,48.7
2018-05-12T01:21:12.550Z,48.7
2018-05-12T01:22:02.622Z,48.7
2018-05-12T01:22:52.953Z,48.6
2018-05-12T01:23:43.001Z,48.7
2018-05-12T01:24:33.059Z,48.6
2018-05-12T01:25:23.151Z,48.6
2018-05-12T01:26:13.207Z,48.6
2018-05-12T01:27:03.552Z,48.6
2018-05-12T01:27:53.599Z,48.6
2018-05-12T01:28:43.671Z,48.6
2018-05-12T01:29:33.724Z,48.6
2018-05-12T01:30:22.961Z,48.6
2018-05-12T01:31:13.556Z,48.6
2018-05-12T01:32:03.652Z,48.6
2018-05-12T01:32:53.409Z,48.6
2018-05-12T01:33:43.785Z,48.6
2018-05-12T01:34:34.098Z,48.6
2018-05-12T01:35:23.604Z,48.6
2018-05-12T01:36:14.272Z,48.6
2018-05-12T01:37:04.324Z,48.6
2018-05-12T01:37:53.809Z,48.6
2018-05-12T01:38:44.119Z,48.6
2018-05-12T01:39:34.213Z,48.6
2018-05-12T01:40:23.991Z,48.6
2018-05-12T01:41:14.315Z,48.6
2018-05-12T01:42:04.652Z,48.6
2018-05-12T01:42:54.239Z,48.6
2018-05-12T01:43:44.523Z,48.6
2018-05-12T01:44:34.310Z,48.6
2018-05-12T01:45:24.352Z,48.5
2018-05-12T05:11:12.260Z,47.3
2018-05-12T05:12:02.884Z,47.3
2018-05-12T05:12:52.945Z,47.3
2018-05-12T05:13:43.577Z,47.3
2018-05-12T05:14:33.348Z,47.3
2018-05-12T05:15:24.540Z,47.3
2018-05-12T05:16:13.464Z,47.3
2018-05-12T05:17:03.557Z,47.3
2018-05-12T05:17:53.591Z,47.3
2018-05-12T05:18:43.922Z,47.3
2018-05-12T05:19:34.007Z,47.2
2018-05-12T05:20:23.968Z,47.2
2018-05-12T05:21:14.793Z,47.2
2018-05-12T05:22:03.895Z,47.2
2018-05-12T05:22:54.253Z,47.2
2018-05-12T05:23:44.215Z,47.2
2018-05-12T05:24:49.261Z,47.2
2018-05-12T05:25:24.251Z,47.2
2018-05-12T05:26:14.109Z,47.2
2018-05-12T05:27:04.275Z,47.2
2018-05-12T05:27:54.344Z,47.2
2018-05-12T05:28:44.087Z,47.1
2018-05-12T05:29:34.727Z,47.1
2018-05-12T05:30:24.240Z,47.1
2018-05-12T05:31:14.583Z,47.1
2018-05-12T05:32:04.901Z,47.1
2018-05-12T05:32:54.711Z,47.1
2018-05-12T05:33:45.029Z,47.1
2018-05-12T05:34:35.087Z,47.1
2018-05-12T05:35:25.164Z,47.1
2018-05-12T05:36:14.935Z,47.1
2018-05-12T05:37:05.013Z,47.1
2018-05-12T05:37:54.799Z,47.1
2018-05-12T05:38:45.229Z,47.1
2018-05-12T05:39:35.917Z,47.1
2018-05-12T05:40:24.971Z,47.1
2018-05-12T05:41:15.820Z,47.1
2018-05-12T05:42:05.856Z,47.1
2018-05-12T05:43:27.531Z,47.1
2018-05-12T05:43:46.110Z,47.1
2018-05-12T05:44:35.849Z,47
2018-05-12T05:45:25.349Z,47
2018-05-12T05:46:15.702Z,47
2018-05-12T05:47:06.289Z,47
2018-05-12T05:48:10.661Z,47
2018-05-12T05:48:45.573Z,47
2018-05-12T05:49:36.425Z,47
2018-05-12T05:50:26.290Z,47
2018-05-12T05:51:16.231Z,47
2018-05-12T05:52:06.597Z,47
2018-05-12T05:52:56.690Z,47
2018-05-12T05:53:46.503Z,47
2018-05-12T05:54:36.046Z,47
2018-05-12T05:55:26.632Z,47
2018-05-12T05:56:16.702Z,46.9
2018-05-12T05:57:06.849Z,47
2018-05-12T05:57:57.073Z,47
2018-05-12T05:58:46.334Z,46.9
2018-05-12T05:59:36.679Z,46.9
2018-05-12T06:00:26.991Z,46.9
2018-05-12T06:01:16.503Z,46.9
2018-05-12T06:02:06.853Z,46.9
2018-05-12T06:02:56.438Z,46.9
2018-05-12T06:03:47.467Z,46.9
2018-05-12T06:04:37.039Z,46.9
2018-05-12T06:05:27.564Z,46.9
2018-05-12T06:06:17.428Z,46.9
2018-05-12T06:07:07.596Z,46.9
2018-05-12T06:07:57.748Z,46.9
2018-05-12T06:08:48.045Z,46.9
2018-05-12T06:09:37.325Z,46.9
2018-05-12T06:10:27.464Z,46.9
2018-05-12T06:11:17.519Z,46.9
2018-05-12T06:12:07.984Z,46.9
2018-05-12T06:12:57.708Z,46.9
2018-05-12T06:13:48.059Z,46.9
2018-05-12T06:14:37.499Z,46.9
2018-05-12T06:15:28.099Z,46.8
2018-05-12T06:16:18.192Z,46.8
2018-05-12T06:17:08.387Z,46.8
2018-05-12T06:17:58.615Z,46.8
2018-05-12T06:18:47.543Z,46.8
2018-05-12T06:19:38.457Z,46.8
2018-05-12T06:20:28.520Z,46.8
2018-05-12T06:21:18.793Z,46.8
2018-05-12T06:22:08.640Z,46.8
2018-05-12T06:22:58.091Z,46.8
2018-05-12T06:23:49.208Z,46.8
2018-05-12T06:24:53.181Z,46.8
2018-05-12T06:25:28.561Z,46.8
2018-05-12T06:26:19.116Z,46.8
2018-05-12T06:27:08.740Z,46.8
2018-05-12T06:28:13.426Z,46.8
2018-05-12T06:28:48.823Z,46.8
2018-05-12T06:29:38.939Z,46.8
2018-05-12T06:30:30.630Z,46.8
2018-05-12T06:31:18.713Z,46.7
2018-05-12T06:32:09.301Z,46.8
2018-05-12T08:28:05.899Z,48.6
2018-05-12T08:29:09.861Z,48.6
2018-05-12T08:30:00.856Z,48.7
2018-05-12T08:30:35.841Z,48.8
2018-05-12T08:31:25.963Z,48.8
2018-05-12T08:32:15.884Z,48.9
2018-05-12T08:33:05.803Z,49
2018-05-12T08:35:00.693Z,49.2
2018-05-12T08:35:36.588Z,49.2
2018-05-12T08:36:25.735Z,49.3
2018-05-12T08:37:16.259Z,49.3
2018-05-12T08:38:05.569Z,49.4
2018-05-12T08:39:10.592Z,49.4
2018-05-12T08:39:46.491Z,49.6
2018-05-12T08:40:37.074Z,49.6
2018-05-12T08:41:26.832Z,49.6
2018-05-12T08:42:16.100Z,49.7
2018-05-12T08:43:21.284Z,49.8
2018-05-12T08:44:11.219Z,49.9
2018-05-12T08:45:00.715Z,49.9
2018-05-12T08:45:36.455Z,50
2018-05-12T08:46:41.887Z,50.1
2018-05-12T08:47:16.782Z,50.2
2018-05-12T08:48:07.076Z,50.3
2018-05-12T08:48:57.421Z,50.4
2018-05-12T08:49:48.096Z,50.4
2018-05-12T08:50:37.479Z,50.6
2018-05-12T08:51:27.620Z,50.6
2018-05-12T08:52:16.904Z,50.7
2018-05-12T08:53:57.939Z,50.9
2018-05-12T08:55:02.032Z,50.9
2018-05-12T08:55:37.403Z,51
2018-05-12T08:56:27.958Z,51.1
2018-05-12T08:57:17.551Z,51.2
2018-05-12T08:58:08.138Z,51.3
2018-05-12T08:58:58.152Z,51.3
2018-05-12T08:59:47.967Z,51.4
2018-05-12T09:00:38.007Z,51.4
2018-05-12T09:01:28.826Z,51.4
2018-05-12T09:02:17.688Z,51.6
2018-05-12T09:03:22.685Z,51.6
2018-05-12T09:03:58.233Z,51.8
2018-05-12T09:05:37.573Z,51.9
2018-05-12T09:06:27.413Z,52
2018-05-12T09:07:19.403Z,52.1
2018-05-12T09:08:22.750Z,52.2
2018-05-12T09:08:58.872Z,52.3
2018-05-12T09:10:38.039Z,52.4
2018-05-12T09:11:43.909Z,52.5
2018-05-12T09:12:33.366Z,52.6
2018-05-12T16:28:38.392Z,59.6
2018-05-12T16:30:42.711Z,59.6
2018-05-12T16:31:33.085Z,59.6
2018-05-12T16:32:22.457Z,59.6
2018-05-12T16:33:12.777Z,59.5
2018-05-12T16:34:02.588Z,59.6
2018-05-12T16:34:52.437Z,59.6
2018-05-12T16:35:42.489Z,59.5
2018-05-12T16:36:32.795Z,59.5
2018-05-12T16:37:23.625Z,59.5
2018-05-12T16:38:12.867Z,59.5
2018-05-12T16:39:03.211Z,59.5
2018-05-12T16:39:53.003Z,59.5
2018-05-12T16:40:42.599Z,59.5
2018-05-12T16:41:33.497Z,59.5
2018-05-12T16:42:23.214Z,59.4
2018-05-12T16:43:13.546Z,59.5
2018-05-12T16:44:02.778Z,59.4
2018-05-12T16:44:53.387Z,59.4
2018-05-12T16:45:43.443Z,59.4
2018-05-12T16:46:33.506Z,59.4
2018-05-12T16:47:23.318Z,59.4
2018-05-12T16:48:13.368Z,59.4
2018-05-12T16:49:03.741Z,59.4
2018-05-12T16:49:53.790Z,59.4
2018-05-12T16:50:44.591Z,59.4
2018-05-12T16:51:33.620Z,59.4
2018-05-12T16:52:23.973Z,59.4
2018-05-12T16:53:14.297Z,59.4
2018-05-12T16:54:04.404Z,59.4
2018-05-12T16:54:54.168Z,59.4
2018-05-12T16:55:44.244Z,59.4
2018-05-12T16:56:34.293Z,59.4
2018-05-12T16:57:24.150Z,59.4
2018-05-12T16:58:13.841Z,59.4
2018-05-12T16:59:04.941Z,59.4
2018-05-12T16:59:54.241Z,59.3
2018-05-12T17:00:44.316Z,59.4
2018-05-12T17:01:34.956Z,59.3
2018-05-12T17:02:25.036Z,59.3
2018-05-12T17:03:14.771Z,59.3
2018-05-12T17:04:04.848Z,59.3
2018-05-12T17:04:54.648Z,59.3
2018-05-12T17:05:45.263Z,59.3
2018-05-12T17:06:36.306Z,59.3
2018-05-12T17:07:25.379Z,59.3
2018-05-12T17:08:15.449Z,59.3
2018-05-12T17:09:05.253Z,59.3
2018-05-12T17:09:55.643Z,59.3
2018-05-12T17:10:45.345Z,59.3
2018-05-12T17:11:35.681Z,59.3
2018-05-12T17:12:26.420Z,59.3
2018-05-12T17:13:16.120Z,59.3
2018-05-12T17:14:05.885Z,59.3
2018-05-12T17:14:55.955Z,59.3
2018-05-12T17:15:46.073Z,59.3
2018-05-12T17:16:35.512Z,59.3
2018-05-12T17:17:26.163Z,59.3
2018-05-12T17:18:16.225Z,59.2
2018-05-12T17:19:05.512Z,59.2
2018-05-12T17:19:56.340Z,59.2
2018-05-12T17:20:46.390Z,59.2
2018-05-12T17:21:36.553Z,59.2
2018-05-12T17:22:26.511Z,59.2
2018-05-12T17:23:17.325Z,59.2
2018-05-12T17:24:06.167Z,59.2
2018-05-12T17:24:56.676Z,59.1
2018-05-12T17:25:45.728Z,59.1
2018-05-12T17:26:36.664Z,59.1
2018-05-12T17:27:26.601Z,59.1
2018-05-12T17:28:16.413Z,59.1
2018-05-12T17:29:06.737Z,59.1
2018-05-12T17:29:57.281Z,59.1
2018-05-12T17:30:46.579Z,59.1
2018-05-12T17:31:36.747Z,59.1
2018-05-12T17:32:27.069Z,59.1
2018-05-12T17:33:17.352Z,59.1
2018-05-12T17:34:07.383Z,59.1
2018-05-12T17:34:56.605Z,59.1
2018-05-12T17:35:47.589Z,59.1
2018-05-12T17:36:37.586Z,59.1
2018-05-12T17:37:27.492Z,59.1
2018-05-12T17:38:17.156Z,59.1
2018-05-12T17:39:07.504Z,59.1
2018-05-12T17:39:56.984Z,59.1
2018-05-12T17:40:47.359Z,59.1
2018-05-12T17:41:37.699Z,59.1
2018-05-12T17:42:27.742Z,59.1
2018-05-12T17:43:17.581Z,59
2018-05-12T17:44:08.141Z,59
2018-05-12T17:44:57.753Z,59
2018-05-12T17:45:47.997Z,59
2018-05-12T17:46:38.053Z,59
2018-05-12T17:47:28.123Z,59
2018-05-12T17:48:18.452Z,59
2018-05-12T17:49:08.513Z,59
2018-05-12T17:49:58.195Z,58.9
2018-05-12T17:50:48.667Z,58.9
2018-05-12T17:51:37.905Z,58.9
2018-05-12T17:52:28.764Z,58.9
2018-05-12T17:53:18.831Z,58.9
2018-05-12T17:54:08.325Z,58.9
2018-05-12T17:54:58.955Z,58.9
2018-05-12T17:55:49.209Z,58.9
2018-05-12T17:56:38.803Z,58.9
2018-05-12T17:57:28.855Z,58.9
2018-05-12T17:58:18.942Z,58.9
2018-05-12T17:59:09.242Z,58.9
2018-05-12T17:59:59.356Z,58.9
2018-05-12T18:00:49.122Z,58.9
2018-05-12T18:01:39.176Z,58.9
2018-05-12T18:02:29.062Z,58.9
2018-05-12T18:03:18.538Z,58.9
2018-05-12T18:04:09.625Z,58.9
2018-05-12T18:04:59.438Z,58.9
2018-05-12T18:05:49.768Z,58.9
2018-05-12T18:06:39.501Z,58.8
2018-05-12T18:07:29.320Z,58.9
2018-05-12T18:08:19.957Z,58.8
2018-05-12T18:09:09.986Z,58.8
2018-05-12T18:10:00.052Z,58.8
2018-05-12T18:10:50.121Z,58.8
2018-05-12T18:11:40.217Z,58.8
2018-05-12T18:12:29.671Z,58.8
2018-05-12T18:13:20.412Z,58.8
2018-05-12T18:14:10.082Z,58.8
2018-05-12T18:15:00.233Z,58.8
2018-05-12T18:15:50.508Z,58.8
2018-05-12T18:16:40.629Z,58.8
2018-05-12T18:17:31.345Z,58.8
2018-05-12T18:18:20.499Z,58.8
2018-05-12T18:19:10.742Z,58.8
2018-05-12T18:20:00.541Z,58.8
2018-05-12T18:20:50.873Z,58.8
2018-05-12T18:21:40.683Z,58.8
2018-05-12T18:22:30.993Z,58.8
2018-05-12T18:23:21.240Z,58.8
2018-05-12T18:24:10.817Z,58.7
2018-05-12T18:25:01.173Z,58.7
2018-05-12T18:25:50.965Z,58.7
2018-05-12T18:26:41.050Z,58.7
2018-05-12T18:27:31.353Z,58.7
2018-05-12T18:28:21.436Z,58.7
2018-05-12T18:29:11.616Z,58.7
2018-05-12T18:30:01.582Z,58.7
2018-05-12T18:30:51.623Z,58.6
2018-05-12T18:31:41.111Z,58.7
2018-05-12T18:32:30.909Z,58.6
2018-05-12T18:33:21.856Z,58.6
2018-05-12T18:34:11.581Z,58.6
2018-05-12T18:35:01.941Z,58.6
2018-05-12T18:35:51.714Z,58.6
2018-05-12T18:36:42.147Z,58.6
2018-05-12T18:37:31.598Z,58.6
2018-05-12T18:38:21.363Z,58.6
2018-05-12T18:39:12.260Z,58.6
2018-05-12T18:48:22.949Z,58.5
2018-05-12T18:49:12.992Z,58.5
2018-05-12T18:50:02.818Z,58.5
2018-05-12T18:50:53.170Z,58.5
2018-05-12T18:51:43.203Z,58.5
2018-05-12T18:52:33.256Z,58.5
2018-05-12T18:53:23.064Z,58.5
2018-05-12T18:54:13.124Z,58.5
2018-05-12T18:55:03.181Z,58.5
2018-05-12T18:55:53.509Z,58.4
2018-05-12T18:56:44.707Z,58.5
2018-05-12T18:57:33.672Z,58.4
2018-05-12T18:58:23.710Z,58.4
2018-05-12T18:59:13.263Z,58.4
2018-05-12T19:00:03.893Z,58.4
2018-05-12T19:00:53.884Z,58.4
2018-05-12T19:01:43.672Z,58.4
2018-05-12T19:02:33.441Z,58.4
2018-05-12T19:03:24.098Z,58.4
2018-05-12T19:04:14.141Z,58.4
2018-05-12T19:05:03.957Z,58.4
2018-05-12T19:05:54.254Z,58.4
2018-05-12T19:06:44.039Z,58.4
2018-05-12T19:07:34.099Z,58.4
2018-05-12T19:08:25.216Z,58.4
2018-05-12T19:09:14.511Z,58.4
2018-05-12T19:10:04.301Z,58.4
2018-05-12T19:10:54.465Z,58.4
2018-05-12T19:11:44.698Z,58.4
2018-05-12T19:12:34.537Z,58.4
2018-05-12T19:13:24.573Z,58.3
2018-05-12T19:14:14.906Z,58.3
2018-05-12T19:15:04.777Z,58.3
2018-05-12T19:15:54.440Z,58.3
2018-05-12T19:16:44.536Z,58.3
2018-05-12T19:17:34.862Z,58.3
2018-05-12T19:18:24.949Z,58.3
2018-05-12T19:19:15.290Z,58.3
2018-05-12T19:20:05.372Z,58.3
2018-05-12T19:20:55.159Z,58.3
2018-05-12T19:21:44.912Z,58.3
2018-05-12T19:22:36.307Z,58.3
2018-05-12T19:23:25.336Z,58.3
2018-05-12T19:24:15.755Z,58.3
2018-05-12T19:25:05.472Z,58.3
2018-05-12T19:25:55.799Z,58.3
2018-05-12T19:26:45.853Z,58.3
2018-05-12T19:27:35.890Z,58.3
2018-05-12T19:28:25.685Z,58.2
2018-05-12T19:29:15.497Z,58.2
2018-05-12T19:30:06.097Z,58.2
2018-05-12T19:30:55.587Z,58.2
2018-05-12T19:31:46.211Z,58.2
2018-05-12T19:32:35.712Z,58.2
2018-05-12T19:33:26.357Z,58.2
2018-05-12T19:34:16.450Z,58.2
2018-05-12T19:35:06.486Z,58.2
2018-05-12T19:35:56.536Z,58.1
2018-05-12T19:36:45.588Z,58.2
2018-05-12T19:37:36.407Z,58.1
2018-05-12T19:38:26.746Z,58.1
2018-05-12T19:39:16.809Z,58.1
2018-05-12T19:40:06.584Z,58.1
2018-05-12T19:40:56.946Z,58.1
2018-05-12T19:41:46.964Z,58.1
2018-05-12T19:42:36.763Z,58.1
2018-05-12T19:43:27.108Z,58.1
2018-05-12T19:44:17.163Z,58.1
2018-05-12T19:45:07.309Z,58.1
2018-05-12T19:45:57.038Z,58.1
2018-05-12T19:46:47.346Z,58.1
2018-05-12T19:47:37.166Z,58.1
2018-05-12T19:48:27.237Z,58.1
2018-05-12T19:49:17.545Z,58.1
2018-05-12T19:50:07.588Z,58.1
2018-05-12T19:50:57.376Z,58.1
2018-05-12T19:51:47.443Z,58
2018-05-12T19:52:37.536Z,58.1
2018-05-12T19:53:27.294Z,58
2018-05-12T19:54:17.085Z,58
2018-05-12T19:55:07.979Z,58
2018-05-12T19:55:57.842Z,58
2018-05-12T19:56:48.264Z,58
2018-05-12T19:57:38.195Z,58
2018-05-12T19:58:27.959Z,58
2018-05-12T19:59:18.013Z,58
2018-05-12T20:00:08.083Z,58
2018-05-12T20:00:58.157Z,57.9
2018-05-12T20:01:48.547Z,57.9
2018-05-12T20:02:38.294Z,57.9
2018-05-12T20:03:28.633Z,57.9
2018-05-12T20:04:18.702Z,57.9
2018-05-12T20:05:08.531Z,57.9
2018-05-12T20:05:58.538Z,57.9
2018-05-12T20:06:48.915Z,57.9
2018-05-12T20:07:38.738Z,57.9
2018-05-12T20:08:28.753Z,57.9
2018-05-12T20:09:19.066Z,57.9
2018-05-12T20:10:09.206Z,57.9
2018-05-12T20:10:59.332Z,57.9
2018-05-12T20:11:49.366Z,57.9
2018-05-12T20:12:38.824Z,57.9
2018-05-12T20:13:29.486Z,57.9
2018-05-12T20:14:18.931Z,57.9
2018-05-12T20:15:08.988Z,57.9
2018-05-12T20:16:00.036Z,57.8
2018-05-12T20:16:49.399Z,57.8
2018-05-12T20:17:39.461Z,57.9
2018-05-12T20:18:29.841Z,57.8
2018-05-12T20:19:19.906Z,57.8
2018-05-12T20:20:09.362Z,57.8
2018-05-12T20:20:59.442Z,57.8
2018-05-12T20:21:49.803Z,57.8
2018-05-12T20:22:40.149Z,57.8
2018-05-12T20:23:29.635Z,57.8
2018-05-12T20:24:19.773Z,57.8
2018-05-12T20:33:30.909Z,57.7
2018-05-12T20:34:20.968Z,57.7
2018-05-12T20:35:11.006Z,57.7
2018-05-12T20:36:00.771Z,57.7
2018-05-12T20:36:51.127Z,57.7
2018-05-12T20:37:40.181Z,57.7
2018-05-12T20:38:30.974Z,57.7
2018-05-12T20:39:20.770Z,57.6
2018-05-12T20:40:10.804Z,57.6
2018-05-12T20:41:01.422Z,57.6
2018-05-12T20:41:51.488Z,57.7
2018-05-12T20:42:41.584Z,57.6
2018-05-12T20:43:31.630Z,57.6
2018-05-12T20:44:21.135Z,57.6
2018-05-12T20:45:11.203Z,57.6
2018-05-12T20:46:01.526Z,57.6
2018-05-12T20:46:51.642Z,57.6
2018-05-12T20:47:41.930Z,57.6
2018-05-12T20:48:32.096Z,57.6
2018-05-12T20:49:22.033Z,57.6
2018-05-12T20:50:11.863Z,57.6
2018-05-12T20:51:02.181Z,57.6
2018-05-12T20:51:52.247Z,57.6
2018-05-12T20:52:42.330Z,57.6
2018-05-12T20:53:32.082Z,57.6
2018-05-12T20:54:22.439Z,57.6
2018-05-12T20:55:12.509Z,57.6
2018-05-12T20:56:02.564Z,57.6
2018-05-12T20:56:52.665Z,57.6
2018-05-12T20:57:41.940Z,57.5
2018-05-12T20:58:32.772Z,57.5
2018-05-12T20:59:22.532Z,57.5
2018-05-12T21:00:12.597Z,57.5
2018-05-12T21:01:02.925Z,57.5
2018-05-12T21:01:52.981Z,57.5
2018-05-12T21:02:43.068Z,57.5
2018-05-12T21:03:33.118Z,57.5
2018-05-12T21:04:22.911Z,57.5
2018-05-12T21:05:13.247Z,57.4
2018-05-12T21:06:03.289Z,57.4
2018-05-12T21:06:53.355Z,57.4
2018-05-12T21:07:43.440Z,57.4
2018-05-12T21:08:33.220Z,57.4
2018-05-12T21:09:23.572Z,57.4
2018-05-12T21:10:13.595Z,57.4
2018-05-12T21:11:03.672Z,57.4
2018-05-12T21:11:53.162Z,57.4
2018-05-12T21:12:43.791Z,57.4
2018-05-12T21:13:33.328Z,57.4
2018-05-12T21:14:24.813Z,57.4
2018-05-12T21:15:13.698Z,57.4
2018-05-12T21:16:03.737Z,57.4
2018-05-12T21:16:53.535Z,57.4
2018-05-12T21:17:43.445Z,57.4
2018-05-12T21:18:33.914Z,57.4
2018-05-12T21:19:23.485Z,57.3
2018-05-12T21:20:14.372Z,57.3
2018-05-12T21:21:04.158Z,57.3
2018-05-12T21:21:53.907Z,57.3
2018-05-12T21:22:44.003Z,57.3
2018-05-12T21:23:34.340Z,57.3
2018-05-12T21:24:24.690Z,57.3
2018-05-12T21:25:14.474Z,57.3
2018-05-12T21:26:04.521Z,57.3
2018-05-12T21:26:54.584Z,57.3
2018-05-12T21:27:45.070Z,57.3
2018-05-12T21:28:35.011Z,57.3
2018-05-12T21:29:25.320Z,57.3
2018-05-12T21:30:15.123Z,57.3
2018-05-12T21:31:04.955Z,57.3
2018-05-12T21:31:55.224Z,57.3
2018-05-12T21:32:44.782Z,57.3
2018-05-12T21:33:34.613Z,57.3
2018-05-12T21:34:25.550Z,57.3
2018-05-12T21:35:15.256Z,57.2
2018-05-12T21:36:05.581Z,57.2
2018-05-12T21:36:55.327Z,57.3
2018-05-12T21:37:45.736Z,57.2
2018-05-12T21:38:35.448Z,57.2
2018-05-12T21:39:25.807Z,57.2
2018-05-12T21:40:15.843Z,57.2
2018-05-12T21:41:05.635Z,57.2
2018-05-12T21:41:55.722Z,57.2
2018-05-12T21:42:45.780Z,57.1
2018-05-12T21:43:35.835Z,57.2
2018-05-12T21:44:25.933Z,57.2
2018-05-12T21:45:16.261Z,57.1
2018-05-12T21:46:06.873Z,57.1
2018-05-12T21:46:56.371Z,57.1
2018-05-12T21:47:46.180Z,57.1
2018-05-12T21:48:36.486Z,57.1
2018-05-12T21:49:26.631Z,57.1
2018-05-12T21:50:16.653Z,57.1
2018-05-12T21:51:06.419Z,57.1
2018-05-12T21:51:56.458Z,57.1
2018-05-12T21:52:46.839Z,57.1
2018-05-12T21:53:36.655Z,57.1
2018-05-12T21:54:26.942Z,57.1
2018-05-12T21:55:17.032Z,57.1
2018-05-12T21:56:06.779Z,57.1
2018-05-12T21:56:57.116Z,57.1
2018-05-12T21:57:46.629Z,57.1
2018-05-12T21:58:37.294Z,57.1
2018-05-12T21:59:27.018Z,57.1
2018-05-12T22:00:17.489Z,57
2018-05-12T22:01:06.873Z,57
2018-05-12T22:01:56.915Z,57
2018-05-12T22:02:47.022Z,57
2018-05-12T22:03:37.622Z,57
2018-05-12T22:04:27.742Z,57
2018-05-12T22:05:17.751Z,57
2018-05-12T22:06:07.580Z,57
2018-05-12T22:06:57.323Z,57
2018-05-12T22:07:48.106Z,57
2018-05-12T22:08:38.008Z,56.9
2018-05-12T22:09:27.525Z,56.9
2018-05-12T22:10:18.119Z,56.9
2018-05-12T22:11:08.184Z,56.9
2018-05-12T22:11:57.688Z,56.9
2018-05-12T22:12:48.053Z,56.9
2018-05-12T22:13:38.392Z,56.9
2018-05-12T22:14:28.419Z,56.9
2018-05-12T22:15:18.204Z,56.9
2018-05-12T22:16:07.985Z,56.9
2018-05-12T22:16:58.330Z,56.9
2018-05-12T22:17:48.422Z,56.9
2018-05-12T22:18:39.140Z,56.9
2018-05-12T22:19:28.837Z,56.9
2018-05-12T22:20:18.878Z,56.9
2018-05-12T22:21:08.667Z,56.9
2018-05-12T22:21:58.201Z,56.9
2018-05-12T22:22:49.055Z,56.9
2018-05-12T22:23:39.157Z,56.8
2018-05-12T22:24:28.974Z,56.8
2018-05-12T22:25:18.986Z,56.8
2018-05-12T22:26:09.050Z,56.8
2018-05-12T22:26:59.079Z,56.8
2018-05-12T22:27:49.199Z,56.8
2018-05-12T22:28:39.249Z,56.8
2018-05-12T22:29:29.574Z,56.8
2018-05-12T22:30:19.109Z,56.8
2018-05-12T22:31:09.143Z,56.8
2018-05-12T22:31:59.784Z,56.8
2018-05-12T22:32:49.821Z,56.8
2018-05-12T22:33:39.869Z,56.8
2018-05-12T22:34:29.373Z,56.8
2018-05-12T22:35:19.447Z,56.8
2018-05-12T22:36:10.079Z,56.8
2018-05-12T22:36:59.853Z,56.8
2018-05-12T22:37:50.174Z,56.8
2018-05-12T22:38:40.252Z,56.7
2018-05-12T22:39:30.324Z,56.7
2018-05-12T22:40:19.834Z,56.7
2018-05-12T22:41:10.473Z,56.7
2018-05-12T22:42:00.507Z,56.7
2018-05-12T22:42:50.307Z,56.7
2018-05-12T22:43:40.642Z,56.7
2018-05-12T22:44:30.758Z,56.7
2018-05-12T22:45:20.482Z,56.7
2018-05-12T22:46:10.560Z,56.6
2018-05-12T22:47:00.898Z,56.6
2018-05-12T22:47:50.968Z,56.6
2018-05-12T22:48:40.805Z,56.6
2018-05-12T22:49:31.123Z,56.6
2018-05-12T22:50:21.152Z,56.6
2018-05-12T22:51:10.920Z,56.6
2018-05-12T22:52:01.277Z,56.6
2018-05-12T22:52:51.340Z,56.6
2018-05-12T22:53:41.147Z,56.6
2018-05-12T22:54:31.210Z,56.6
2018-05-12T22:55:20.953Z,56.6
2018-05-12T22:56:11.622Z,56.6
2018-05-12T22:57:01.355Z,56.6
2018-05-12T22:57:51.725Z,56.6
2018-05-12T22:58:41.482Z,56.6
2018-05-12T22:59:31.850Z,56.6
2018-05-12T23:00:21.615Z,56.6
2018-05-12T23:01:11.992Z,56.6
2018-05-12T23:02:02.007Z,56.5
2018-05-12T23:02:52.107Z,56.5
2018-05-12T23:03:41.586Z,56.6
2018-05-12T23:04:31.953Z,56.5
2018-05-12T23:05:21.989Z,56.5
2018-05-12T23:06:12.146Z,56.5
2018-05-12T23:07:02.399Z,56.5
2018-05-12T23:07:52.464Z,56.5
2018-05-12T23:08:42.500Z,56.5
2018-05-12T23:09:32.592Z,56.5
2018-05-12T23:10:22.638Z,56.4
2018-05-12T23:11:12.785Z,56.5
2018-05-12T23:12:02.798Z,56.4
2018-05-12T23:12:52.549Z,56.4
2018-05-12T23:13:42.895Z,56.4
2018-05-12T23:14:32.687Z,56.4
2018-05-12T23:15:22.994Z,56.4
2018-05-12T23:16:12.514Z,56.4
2018-05-12T23:17:02.670Z,56.4
2018-05-12T23:17:53.226Z,56.4
2018-05-12T23:18:43.252Z,56.4
2018-05-12T23:19:33.409Z,56.4
2018-05-12T23:20:22.863Z,56.4
2018-05-12T23:21:13.459Z,56.4
2018-05-12T23:22:03.235Z,56.4
2018-05-12T23:22:53.030Z,56.4
2018-05-12T23:23:43.372Z,56.4
2018-05-12T23:24:33.433Z,56.4
2018-05-12T23:25:23.775Z,56.3
2018-05-12T23:26:13.533Z,56.4
2018-05-12T23:27:03.612Z,56.3
2018-05-12T23:27:53.675Z,56.3
2018-05-12T23:28:43.464Z,56.3
2018-05-12T23:29:33.791Z,56.3
2018-05-12T23:30:24.120Z,56.3
2018-05-12T23:31:13.350Z,56.3
2018-05-12T23:32:04.237Z,56.3
2018-05-12T23:32:54.300Z,56.3
2018-05-12T23:33:44.369Z,56.3
2018-05-12T23:34:34.422Z,56.3
2018-05-12T23:35:24.227Z,56.3
2018-05-12T23:36:14.564Z,56.3
2018-05-12T23:37:04.618Z,56.3
2018-05-12T23:37:54.707Z,56.3
2018-05-12T23:38:44.212Z,56.3
2018-05-12T23:39:34.548Z,56.3
2018-05-12T23:40:24.894Z,56.3
2018-05-12T23:41:14.689Z,56.3
2018-05-12T23:42:04.488Z,56.2
2018-05-12T23:42:55.079Z,56.2
2018-05-12T23:43:44.574Z,56.2
2018-05-12T23:44:34.889Z,56.2
2018-05-12T23:45:25.275Z,56.2
2018-05-12T23:46:15.045Z,56.2
2018-05-12T23:47:05.383Z,56.2
2018-05-12T23:47:54.597Z,56.2
2018-05-12T23:48:44.936Z,56.2
2018-05-12T23:49:35.565Z,56.1
2018-05-12T23:50:25.642Z,56.2
2018-05-12T23:51:15.829Z,56.1
2018-05-12T23:52:05.464Z,56.1
2018-05-12T23:52:55.572Z,56.1
2018-05-12T23:53:45.331Z,56.1
2018-05-12T23:54:35.956Z,56.1
2018-05-12T23:55:25.758Z,56.1
2018-05-12T23:56:16.067Z,56.1
2018-05-12T23:57:05.864Z,56.1
2018-05-12T23:57:56.207Z,56.1
2018-05-12T23:58:45.986Z,56.1
2018-05-12T23:59:36.063Z,56.1
